sensor_id;sensor_type;location;lat;lon;timestamp;temperature;humidity
40622;DHT22;26324;52.040;11.528;2023-12-20T00:02:24;7.10;87.90
40622;DHT22;26324;52.040;11.528;2023-12-20T00:04:52;7.10;87.70
40622;DHT22;26324;52.040;11.528;2023-12-20T00:07:19;7.10;87.80
40622;DHT22;26324;52.040;11.528;2023-12-20T00:09:47;7.10;87.70
40622;DHT22;26324;52.040;11.528;2023-12-20T00:12:14;7.10;87.80
40622;DHT22;26324;52.040;11.528;2023-12-20T00:14:41;7.10;87.80
40622;DHT22;26324;52.040;11.528;2023-12-20T00:17:09;7.10;87.40
40622;DHT22;26324;52.040;11.528;2023-12-20T00:19:36;7.20;87.20
40622;DHT22;26324;52.040;11.528;2023-12-20T00:22:04;7.10;87.00
40622;DHT22;26324;52.040;11.528;2023-12-20T00:24:31;7.10;87.40
40622;DHT22;26324;52.040;11.528;2023-12-20T00:26:58;7.10;87.30
40622;DHT22;26324;52.040;11.528;2023-12-20T00:29:25;7.10;87.20
40622;DHT22;26324;52.040;11.528;2023-12-20T00:31:53;7.20;87.40
40622;DHT22;26324;52.040;11.528;2023-12-20T00:34:20;7.20;87.00
40622;DHT22;26324;52.040;11.528;2023-12-20T00:36:48;7.30;86.90
40622;DHT22;26324;52.040;11.528;2023-12-20T00:39:15;7.20;86.50
40622;DHT22;26324;52.040;11.528;2023-12-20T00:41:42;7.30;86.60
40622;DHT22;26324;52.040;11.528;2023-12-20T00:44:10;7.30;86.10
40622;DHT22;26324;52.040;11.528;2023-12-20T00:46:37;7.30;86.20
40622;DHT22;26324;52.040;11.528;2023-12-20T00:49:04;7.30;86.30
40622;DHT22;26324;52.040;11.528;2023-12-20T00:51:32;7.20;86.50
40622;DHT22;26324;52.040;11.528;2023-12-20T00:53:59;7.10;86.70
40622;DHT22;26324;52.040;11.528;2023-12-20T00:56:26;7.10;86.70
40622;DHT22;26324;52.040;11.528;2023-12-20T00:58:53;7.10;86.70
40622;DHT22;26324;52.040;11.528;2023-12-20T01:01:21;7.10;86.80
40622;DHT22;26324;52.040;11.528;2023-12-20T01:03:49;7.10;86.80
40622;DHT22;26324;52.040;11.528;2023-12-20T01:06:18;7.20;86.50
40622;DHT22;26324;52.040;11.528;2023-12-20T01:08:46;7.10;86.50
40622;DHT22;26324;52.040;11.528;2023-12-20T01:11:13;7.10;86.60
40622;DHT22;26324;52.040;11.528;2023-12-20T01:13:40;7.10;86.90
40622;DHT22;26324;52.040;11.528;2023-12-20T01:16:10;7.10;86.80
40622;DHT22;26324;52.040;11.528;2023-12-20T01:18:38;7.20;86.90
40622;DHT22;26324;52.040;11.528;2023-12-20T01:21:06;7.10;86.60
40622;DHT22;26324;52.040;11.528;2023-12-20T01:23:33;7.20;86.60
40622;DHT22;26324;52.040;11.528;2023-12-20T01:26:00;7.20;86.50
40622;DHT22;26324;52.040;11.528;2023-12-20T01:28:28;7.30;86.60
40622;DHT22;26324;52.040;11.528;2023-12-20T01:30:55;7.30;86.50
40622;DHT22;26324;52.040;11.528;2023-12-20T01:33:22;7.30;86.50
40622;DHT22;26324;52.040;11.528;2023-12-20T01:35:49;7.40;86.80
40622;DHT22;26324;52.040;11.528;2023-12-20T01:38:17;7.40;87.10
40622;DHT22;26324;52.040;11.528;2023-12-20T01:40:45;7.50;87.40
40622;DHT22;26324;52.040;11.528;2023-12-20T01:43:13;7.40;87.80
40622;DHT22;26324;52.040;11.528;2023-12-20T01:45:40;7.50;87.80
40622;DHT22;26324;52.040;11.528;2023-12-20T01:48:08;7.50;88.00
40622;DHT22;26324;52.040;11.528;2023-12-20T01:50:37;7.50;87.90
40622;DHT22;26324;52.040;11.528;2023-12-20T01:53:07;7.60;87.90
40622;DHT22;26324;52.040;11.528;2023-12-20T01:55:39;7.70;87.60
40622;DHT22;26324;52.040;11.528;2023-12-20T01:58:10;7.70;87.60
40622;DHT22;26324;52.040;11.528;2023-12-20T02:00:38;7.70;87.90
40622;DHT22;26324;52.040;11.528;2023-12-20T02:03:06;7.70;87.20
40622;DHT22;26324;52.040;11.528;2023-12-20T02:05:35;7.70;87.20
40622;DHT22;26324;52.040;11.528;2023-12-20T02:08:03;7.60;87.20
40622;DHT22;26324;52.040;11.528;2023-12-20T02:10:31;7.70;87.20
40622;DHT22;26324;52.040;11.528;2023-12-20T02:12:58;7.70;87.40
40622;DHT22;26324;52.040;11.528;2023-12-20T02:15:26;7.80;87.10
40622;DHT22;26324;52.040;11.528;2023-12-20T02:17:53;7.90;87.00
40622;DHT22;26324;52.040;11.528;2023-12-20T02:20:21;7.80;87.30
40622;DHT22;26324;52.040;11.528;2023-12-20T02:22:48;7.90;87.40
40622;DHT22;26324;52.040;11.528;2023-12-20T02:25:15;7.90;86.60
40622;DHT22;26324;52.040;11.528;2023-12-20T02:27:43;7.70;86.60
40622;DHT22;26324;52.040;11.528;2023-12-20T02:30:11;7.80;86.80
40622;DHT22;26324;52.040;11.528;2023-12-20T02:32:39;8.00;86.40
40622;DHT22;26324;52.040;11.528;2023-12-20T02:35:06;7.90;86.00
40622;DHT22;26324;52.040;11.528;2023-12-20T02:37:34;7.90;85.30
40622;DHT22;26324;52.040;11.528;2023-12-20T02:40:01;7.80;85.00
40622;DHT22;26324;52.040;11.528;2023-12-20T02:42:29;7.70;84.80
40622;DHT22;26324;52.040;11.528;2023-12-20T02:44:56;7.60;84.60
40622;DHT22;26324;52.040;11.528;2023-12-20T02:47:23;7.60;84.50
40622;DHT22;26324;52.040;11.528;2023-12-20T02:49:50;7.60;84.20
40622;DHT22;26324;52.040;11.528;2023-12-20T02:52:20;7.60;84.60
40622;DHT22;26324;52.040;11.528;2023-12-20T02:54:47;7.70;83.80
40622;DHT22;26324;52.040;11.528;2023-12-20T02:57:15;7.50;84.30
40622;DHT22;26324;52.040;11.528;2023-12-20T02:59:42;7.50;84.10
40622;DHT22;26324;52.040;11.528;2023-12-20T03:02:09;7.40;84.50
40622;DHT22;26324;52.040;11.528;2023-12-20T03:04:37;7.50;84.20
40622;DHT22;26324;52.040;11.528;2023-12-20T03:07:04;7.30;84.90
40622;DHT22;26324;52.040;11.528;2023-12-20T03:09:31;7.30;84.50
40622;DHT22;26324;52.040;11.528;2023-12-20T03:12:19;7.20;85.10
40622;DHT22;26324;52.040;11.528;2023-12-20T03:14:47;7.20;85.10
40622;DHT22;26324;52.040;11.528;2023-12-20T03:17:14;7.20;84.40
40622;DHT22;26324;52.040;11.528;2023-12-20T03:19:42;7.10;85.00
40622;DHT22;26324;52.040;11.528;2023-12-20T03:22:09;7.10;84.80
40622;DHT22;26324;52.040;11.528;2023-12-20T03:24:36;7.10;84.70
40622;DHT22;26324;52.040;11.528;2023-12-20T03:27:04;7.10;84.20
40622;DHT22;26324;52.040;11.528;2023-12-20T03:29:31;7.10;84.40
40622;DHT22;26324;52.040;11.528;2023-12-20T03:31:58;7.10;84.00
40622;DHT22;26324;52.040;11.528;2023-12-20T03:34:26;7.00;83.50
40622;DHT22;26324;52.040;11.528;2023-12-20T03:36:53;7.10;83.40
40622;DHT22;26324;52.040;11.528;2023-12-20T03:39:21;7.10;83.30
40622;DHT22;26324;52.040;11.528;2023-12-20T03:41:48;7.10;82.80
40622;DHT22;26324;52.040;11.528;2023-12-20T03:44:15;7.10;82.60
40622;DHT22;26324;52.040;11.528;2023-12-20T03:46:42;7.00;82.70
40622;DHT22;26324;52.040;11.528;2023-12-20T03:49:10;7.00;82.60
40622;DHT22;26324;52.040;11.528;2023-12-20T03:51:37;7.00;82.50
40622;DHT22;26324;52.040;11.528;2023-12-20T03:54:08;6.90;82.40
40622;DHT22;26324;52.040;11.528;2023-12-20T03:56:36;6.80;82.50
40622;DHT22;26324;52.040;11.528;2023-12-20T03:59:03;6.80;82.40
40622;DHT22;26324;52.040;11.528;2023-12-20T04:01:30;6.80;82.20
40622;DHT22;26324;52.040;11.528;2023-12-20T04:03:58;6.80;82.50
40622;DHT22;26324;52.040;11.528;2023-12-20T04:06:25;6.60;82.50
40622;DHT22;26324;52.040;11.528;2023-12-20T04:08:53;6.60;82.70
40622;DHT22;26324;52.040;11.528;2023-12-20T04:11:20;6.50;82.50
40622;DHT22;26324;52.040;11.528;2023-12-20T04:13:48;6.50;82.10
40622;DHT22;26324;52.040;11.528;2023-12-20T04:16:15;6.50;82.60
40622;DHT22;26324;52.040;11.528;2023-12-20T04:18:42;6.50;82.30
40622;DHT22;26324;52.040;11.528;2023-12-20T04:21:10;6.50;82.10
40622;DHT22;26324;52.040;11.528;2023-12-20T04:23:37;6.50;81.90
40622;DHT22;26324;52.040;11.528;2023-12-20T04:26:04;6.40;82.10
40622;DHT22;26324;52.040;11.528;2023-12-20T04:28:32;6.30;82.80
40622;DHT22;26324;52.040;11.528;2023-12-20T04:30:59;6.30;83.20
40622;DHT22;26324;52.040;11.528;2023-12-20T04:33:26;6.30;83.30
40622;DHT22;26324;52.040;11.528;2023-12-20T04:35:54;6.30;83.60
40622;DHT22;26324;52.040;11.528;2023-12-20T04:38:21;6.30;83.80
40622;DHT22;26324;52.040;11.528;2023-12-20T04:40:48;6.20;83.90
40622;DHT22;26324;52.040;11.528;2023-12-20T04:43:16;6.30;84.10
40622;DHT22;26324;52.040;11.528;2023-12-20T04:45:43;6.20;83.90
40622;DHT22;26324;52.040;11.528;2023-12-20T04:48:10;6.20;84.30
40622;DHT22;26324;52.040;11.528;2023-12-20T04:50:38;6.20;84.60
40622;DHT22;26324;52.040;11.528;2023-12-20T04:53:05;6.10;84.60
40622;DHT22;26324;52.040;11.528;2023-12-20T04:55:32;6.10;84.30
40622;DHT22;26324;52.040;11.528;2023-12-20T04:58:00;6.10;84.30
40622;DHT22;26324;52.040;11.528;2023-12-20T05:00:27;6.10;84.00
40622;DHT22;26324;52.040;11.528;2023-12-20T05:02:55;6.10;84.20
40622;DHT22;26324;52.040;11.528;2023-12-20T05:05:22;6.00;84.00
40622;DHT22;26324;52.040;11.528;2023-12-20T05:07:50;6.00;84.30
40622;DHT22;26324;52.040;11.528;2023-12-20T05:10:18;6.00;84.10
40622;DHT22;26324;52.040;11.528;2023-12-20T05:12:45;6.00;84.20
40622;DHT22;26324;52.040;11.528;2023-12-20T05:15:12;5.90;84.20
40622;DHT22;26324;52.040;11.528;2023-12-20T05:17:40;5.90;84.50
40622;DHT22;26324;52.040;11.528;2023-12-20T05:20:08;5.90;84.20
40622;DHT22;26324;52.040;11.528;2023-12-20T05:22:35;6.00;84.10
40622;DHT22;26324;52.040;11.528;2023-12-20T05:25:03;6.00;84.20
40622;DHT22;26324;52.040;11.528;2023-12-20T05:27:31;5.90;84.10
40622;DHT22;26324;52.040;11.528;2023-12-20T05:29:59;5.90;84.10
40622;DHT22;26324;52.040;11.528;2023-12-20T05:32:26;6.00;84.00
40622;DHT22;26324;52.040;11.528;2023-12-20T05:34:53;6.00;83.90
40622;DHT22;26324;52.040;11.528;2023-12-20T05:37:21;6.00;83.80
40622;DHT22;26324;52.040;11.528;2023-12-20T05:39:48;6.00;83.70
40622;DHT22;26324;52.040;11.528;2023-12-20T05:42:15;6.00;83.80
40622;DHT22;26324;52.040;11.528;2023-12-20T05:44:43;6.00;84.00
40622;DHT22;26324;52.040;11.528;2023-12-20T05:47:10;6.00;83.90
40622;DHT22;26324;52.040;11.528;2023-12-20T05:49:37;6.00;84.00
40622;DHT22;26324;52.040;11.528;2023-12-20T05:52:05;6.00;84.20
40622;DHT22;26324;52.040;11.528;2023-12-20T05:54:32;6.00;84.00
40622;DHT22;26324;52.040;11.528;2023-12-20T05:56:59;6.00;83.90
40622;DHT22;26324;52.040;11.528;2023-12-20T05:59:27;6.00;83.90
40622;DHT22;26324;52.040;11.528;2023-12-20T06:01:55;6.00;83.60
40622;DHT22;26324;52.040;11.528;2023-12-20T06:04:22;6.00;83.40
40622;DHT22;26324;52.040;11.528;2023-12-20T06:06:50;6.10;83.30
40622;DHT22;26324;52.040;11.528;2023-12-20T06:09:17;5.90;83.40
40622;DHT22;26324;52.040;11.528;2023-12-20T06:11:44;5.90;83.00
40622;DHT22;26324;52.040;11.528;2023-12-20T06:14:13;6.10;81.90
40622;DHT22;26324;52.040;11.528;2023-12-20T06:16:40;6.20;81.40
40622;DHT22;26324;52.040;11.528;2023-12-20T06:19:07;6.30;81.30
40622;DHT22;26324;52.040;11.528;2023-12-20T06:21:35;6.30;80.80
40622;DHT22;26324;52.040;11.528;2023-12-20T06:24:02;6.40;80.50
40622;DHT22;26324;52.040;11.528;2023-12-20T06:26:29;6.50;79.90
40622;DHT22;26324;52.040;11.528;2023-12-20T06:28:57;6.60;79.40
40622;DHT22;26324;52.040;11.528;2023-12-20T06:31:24;6.60;79.30
40622;DHT22;26324;52.040;11.528;2023-12-20T06:33:51;6.60;79.30
40622;DHT22;26324;52.040;11.528;2023-12-20T06:36:26;6.60;79.40
40622;DHT22;26324;52.040;11.528;2023-12-20T06:38:53;6.60;79.50
40622;DHT22;26324;52.040;11.528;2023-12-20T06:41:20;6.60;79.70
40622;DHT22;26324;52.040;11.528;2023-12-20T06:43:48;6.60;79.60
40622;DHT22;26324;52.040;11.528;2023-12-20T06:46:17;6.60;79.70
40622;DHT22;26324;52.040;11.528;2023-12-20T06:48:45;6.50;79.60
40622;DHT22;26324;52.040;11.528;2023-12-20T06:51:14;6.60;79.70
40622;DHT22;26324;52.040;11.528;2023-12-20T06:53:42;6.60;79.90
40622;DHT22;26324;52.040;11.528;2023-12-20T06:56:10;6.60;79.50
40622;DHT22;26324;52.040;11.528;2023-12-20T06:58:37;6.60;79.70
40622;DHT22;26324;52.040;11.528;2023-12-20T07:01:05;6.70;79.50
40622;DHT22;26324;52.040;11.528;2023-12-20T07:03:33;6.80;79.80
40622;DHT22;26324;52.040;11.528;2023-12-20T07:06:00;6.70;79.60
40622;DHT22;26324;52.040;11.528;2023-12-20T07:08:27;6.80;79.60
40622;DHT22;26324;52.040;11.528;2023-12-20T07:10:55;6.70;79.90
40622;DHT22;26324;52.040;11.528;2023-12-20T07:13:22;6.80;79.80
40622;DHT22;26324;52.040;11.528;2023-12-20T07:15:49;6.80;80.20
40622;DHT22;26324;52.040;11.528;2023-12-20T07:18:17;6.90;79.70
40622;DHT22;26324;52.040;11.528;2023-12-20T07:20:44;6.90;79.70
40622;DHT22;26324;52.040;11.528;2023-12-20T07:23:11;6.90;79.20
40622;DHT22;26324;52.040;11.528;2023-12-20T07:25:39;7.00;78.90
40622;DHT22;26324;52.040;11.528;2023-12-20T07:28:06;7.00;79.10
40622;DHT22;26324;52.040;11.528;2023-12-20T07:30:33;7.00;78.90
40622;DHT22;26324;52.040;11.528;2023-12-20T07:33:01;7.00;78.90
40622;DHT22;26324;52.040;11.528;2023-12-20T07:35:29;7.10;78.40
40622;DHT22;26324;52.040;11.528;2023-12-20T07:37:57;7.10;78.40
40622;DHT22;26324;52.040;11.528;2023-12-20T07:40:24;7.10;78.90
40622;DHT22;26324;52.040;11.528;2023-12-20T07:42:51;7.10;79.20
40622;DHT22;26324;52.040;11.528;2023-12-20T07:45:19;7.10;78.80
40622;DHT22;26324;52.040;11.528;2023-12-20T07:47:46;7.00;79.00
40622;DHT22;26324;52.040;11.528;2023-12-20T07:50:14;7.00;79.50
40622;DHT22;26324;52.040;11.528;2023-12-20T07:52:41;7.00;79.40
40622;DHT22;26324;52.040;11.528;2023-12-20T07:55:08;7.00;79.70
40622;DHT22;26324;52.040;11.528;2023-12-20T07:57:36;7.10;80.00
40622;DHT22;26324;52.040;11.528;2023-12-20T08:00:04;7.00;80.10
40622;DHT22;26324;52.040;11.528;2023-12-20T08:02:32;7.10;80.50
40622;DHT22;26324;52.040;11.528;2023-12-20T08:04:59;7.00;80.50
40622;DHT22;26324;52.040;11.528;2023-12-20T08:07:27;7.10;80.40
40622;DHT22;26324;52.040;11.528;2023-12-20T08:09:54;7.00;80.40
40622;DHT22;26324;52.040;11.528;2023-12-20T08:12:23;7.10;80.40
40622;DHT22;26324;52.040;11.528;2023-12-20T08:14:50;7.00;80.10
40622;DHT22;26324;52.040;11.528;2023-12-20T08:17:18;7.10;79.80
40622;DHT22;26324;52.040;11.528;2023-12-20T08:19:46;7.10;79.60
40622;DHT22;26324;52.040;11.528;2023-12-20T08:22:13;7.20;78.90
40622;DHT22;26324;52.040;11.528;2023-12-20T08:24:40;7.20;78.70
40622;DHT22;26324;52.040;11.528;2023-12-20T08:27:08;7.30;78.80
40622;DHT22;26324;52.040;11.528;2023-12-20T08:29:36;7.20;78.50
40622;DHT22;26324;52.040;11.528;2023-12-20T08:32:04;7.20;78.70
40622;DHT22;26324;52.040;11.528;2023-12-20T08:34:31;7.20;78.80
40622;DHT22;26324;52.040;11.528;2023-12-20T08:36:59;7.30;78.70
40622;DHT22;26324;52.040;11.528;2023-12-20T08:39:26;7.30;78.60
40622;DHT22;26324;52.040;11.528;2023-12-20T08:41:54;7.30;79.00
40622;DHT22;26324;52.040;11.528;2023-12-20T08:44:21;7.30;78.90
40622;DHT22;26324;52.040;11.528;2023-12-20T08:46:49;7.20;79.10
40622;DHT22;26324;52.040;11.528;2023-12-20T08:49:17;7.30;78.80
40622;DHT22;26324;52.040;11.528;2023-12-20T08:51:44;7.20;78.90
40622;DHT22;26324;52.040;11.528;2023-12-20T08:54:11;7.30;78.80
40622;DHT22;26324;52.040;11.528;2023-12-20T08:56:40;7.40;79.00
40622;DHT22;26324;52.040;11.528;2023-12-20T08:59:07;7.30;78.90
40622;DHT22;26324;52.040;11.528;2023-12-20T09:01:34;7.30;78.90
40622;DHT22;26324;52.040;11.528;2023-12-20T09:04:02;7.20;79.60
40622;DHT22;26324;52.040;11.528;2023-12-20T09:06:30;7.10;79.70
40622;DHT22;26324;52.040;11.528;2023-12-20T09:08:57;7.20;79.60
40622;DHT22;26324;52.040;11.528;2023-12-20T09:11:24;7.20;79.60
40622;DHT22;26324;52.040;11.528;2023-12-20T09:13:52;7.30;79.70
40622;DHT22;26324;52.040;11.528;2023-12-20T09:16:19;7.40;79.40
40622;DHT22;26324;52.040;11.528;2023-12-20T09:18:47;7.50;79.50
40622;DHT22;26324;52.040;11.528;2023-12-20T09:21:14;7.50;79.50
40622;DHT22;26324;52.040;11.528;2023-12-20T09:23:41;7.60;78.40
40622;DHT22;26324;52.040;11.528;2023-12-20T09:26:09;7.50;78.50
40622;DHT22;26324;52.040;11.528;2023-12-20T09:28:36;7.40;79.10
40622;DHT22;26324;52.040;11.528;2023-12-20T09:31:05;7.40;79.20
40622;DHT22;26324;52.040;11.528;2023-12-20T09:33:33;7.50;77.90
40622;DHT22;26324;52.040;11.528;2023-12-20T09:36:01;7.60;78.20
40622;DHT22;26324;52.040;11.528;2023-12-20T09:38:28;7.60;77.30
40622;DHT22;26324;52.040;11.528;2023-12-20T09:40:55;7.60;77.50
40622;DHT22;26324;52.040;11.528;2023-12-20T09:43:24;7.60;77.10
40622;DHT22;26324;52.040;11.528;2023-12-20T09:45:53;7.60;76.10
40622;DHT22;26324;52.040;11.528;2023-12-20T09:48:21;7.80;75.80
40622;DHT22;26324;52.040;11.528;2023-12-20T09:50:48;7.90;75.00
40622;DHT22;26324;52.040;11.528;2023-12-20T09:53:20;8.00;74.80
40622;DHT22;26324;52.040;11.528;2023-12-20T09:55:48;8.00;74.90
40622;DHT22;26324;52.040;11.528;2023-12-20T09:58:16;8.10;75.00
40622;DHT22;26324;52.040;11.528;2023-12-20T10:00:43;8.10;75.00
40622;DHT22;26324;52.040;11.528;2023-12-20T10:03:11;8.10;74.40
40622;DHT22;26324;52.040;11.528;2023-12-20T10:05:43;8.10;74.60
40622;DHT22;26324;52.040;11.528;2023-12-20T10:08:11;8.00;74.80
40622;DHT22;26324;52.040;11.528;2023-12-20T10:10:39;8.10;74.90
40622;DHT22;26324;52.040;11.528;2023-12-20T10:13:15;8.10;74.50
40622;DHT22;26324;52.040;11.528;2023-12-20T10:15:43;8.00;75.00
40622;DHT22;26324;52.040;11.528;2023-12-20T10:18:12;8.00;74.60
40622;DHT22;26324;52.040;11.528;2023-12-20T10:20:40;7.90;75.50
40622;DHT22;26324;52.040;11.528;2023-12-20T10:23:08;7.90;75.10
40622;DHT22;26324;52.040;11.528;2023-12-20T10:25:35;8.00;75.10
40622;DHT22;26324;52.040;11.528;2023-12-20T10:28:16;8.00;74.40
40622;DHT22;26324;52.040;11.528;2023-12-20T10:30:46;8.10;74.90
40622;DHT22;26324;52.040;11.528;2023-12-20T10:33:24;8.10;74.10
40622;DHT22;26324;52.040;11.528;2023-12-20T10:35:52;8.20;73.30
40622;DHT22;26324;52.040;11.528;2023-12-20T10:38:19;8.20;73.50
40622;DHT22;26324;52.040;11.528;2023-12-20T10:40:47;8.20;74.00
40622;DHT22;26324;52.040;11.528;2023-12-20T10:43:15;8.30;74.20
40622;DHT22;26324;52.040;11.528;2023-12-20T10:45:42;8.20;73.30
40622;DHT22;26324;52.040;11.528;2023-12-20T10:48:12;8.30;73.80
40622;DHT22;26324;52.040;11.528;2023-12-20T10:50:41;8.20;73.40
40622;DHT22;26324;52.040;11.528;2023-12-20T10:53:08;8.20;72.90
40622;DHT22;26324;52.040;11.528;2023-12-20T10:55:36;8.20;73.60
40622;DHT22;26324;52.040;11.528;2023-12-20T10:58:08;8.30;73.30
40622;DHT22;26324;52.040;11.528;2023-12-20T11:00:39;8.30;72.50
40622;DHT22;26324;52.040;11.528;2023-12-20T11:03:11;8.40;72.60
40622;DHT22;26324;52.040;11.528;2023-12-20T11:05:59;8.50;72.30
40622;DHT22;26324;52.040;11.528;2023-12-20T11:08:58;8.60;72.50
40622;DHT22;26324;52.040;11.528;2023-12-20T11:14:47;8.60;71.90
40622;DHT22;26324;52.040;11.528;2023-12-20T11:17:15;8.60;71.80
40622;DHT22;26324;52.040;11.528;2023-12-20T11:22:32;8.60;71.50
40622;DHT22;26324;52.040;11.528;2023-12-20T11:25:05;8.60;71.30
40622;DHT22;26324;52.040;11.528;2023-12-20T11:27:34;8.60;71.80
40622;DHT22;26324;52.040;11.528;2023-12-20T11:30:05;8.60;71.80
40622;DHT22;26324;52.040;11.528;2023-12-20T11:32:37;8.50;70.90
40622;DHT22;26324;52.040;11.528;2023-12-20T11:37:39;8.50;71.40
40622;DHT22;26324;52.040;11.528;2023-12-20T11:40:15;8.60;71.70
40622;DHT22;26324;52.040;11.528;2023-12-20T11:42:44;8.60;71.50
40622;DHT22;26324;52.040;11.528;2023-12-20T11:45:17;8.70;71.60
40622;DHT22;26324;52.040;11.528;2023-12-20T11:47:48;8.70;71.60
40622;DHT22;26324;52.040;11.528;2023-12-20T11:50:18;8.70;71.70
40622;DHT22;26324;52.040;11.528;2023-12-20T11:52:51;8.60;72.00
40622;DHT22;26324;52.040;11.528;2023-12-20T11:55:18;8.60;72.00
40622;DHT22;26324;52.040;11.528;2023-12-20T11:57:46;8.50;73.10
40622;DHT22;26324;52.040;11.528;2023-12-20T12:00:14;8.40;73.40
40622;DHT22;26324;52.040;11.528;2023-12-20T12:02:42;8.40;74.40
40622;DHT22;26324;52.040;11.528;2023-12-20T12:05:12;8.30;74.00
40622;DHT22;26324;52.040;11.528;2023-12-20T12:07:40;8.40;74.40
40622;DHT22;26324;52.040;11.528;2023-12-20T12:10:07;8.40;74.00
40622;DHT22;26324;52.040;11.528;2023-12-20T12:12:35;8.40;75.10
40622;DHT22;26324;52.040;11.528;2023-12-20T12:15:03;8.40;75.70
40622;DHT22;26324;52.040;11.528;2023-12-20T12:17:30;8.40;75.70
40622;DHT22;26324;52.040;11.528;2023-12-20T12:20:04;8.40;76.10
40622;DHT22;26324;52.040;11.528;2023-12-20T12:22:32;8.30;75.60
40622;DHT22;26324;52.040;11.528;2023-12-20T12:25:10;8.40;75.10
40622;DHT22;26324;52.040;11.528;2023-12-20T12:27:42;8.40;75.20
40622;DHT22;26324;52.040;11.528;2023-12-20T12:30:10;8.40;75.10
40622;DHT22;26324;52.040;11.528;2023-12-20T12:32:40;8.30;76.30
40622;DHT22;26324;52.040;11.528;2023-12-20T12:35:08;8.30;77.20
40622;DHT22;26324;52.040;11.528;2023-12-20T12:37:38;8.20;77.10
40622;DHT22;26324;52.040;11.528;2023-12-20T12:40:14;8.10;77.20
40622;DHT22;26324;52.040;11.528;2023-12-20T12:42:43;8.20;77.30
40622;DHT22;26324;52.040;11.528;2023-12-20T12:45:11;8.20;76.50
40622;DHT22;26324;52.040;11.528;2023-12-20T12:47:39;8.20;77.10
40622;DHT22;26324;52.040;11.528;2023-12-20T12:50:07;8.10;77.90
40622;DHT22;26324;52.040;11.528;2023-12-20T12:52:34;8.10;78.40
40622;DHT22;26324;52.040;11.528;2023-12-20T12:55:03;7.80;80.10
40622;DHT22;26324;52.040;11.528;2023-12-20T12:57:32;7.70;80.30
40622;DHT22;26324;52.040;11.528;2023-12-20T13:00:01;7.60;81.20
40622;DHT22;26324;52.040;11.528;2023-12-20T13:02:30;7.60;81.10
40622;DHT22;26324;52.040;11.528;2023-12-20T13:04:57;7.60;80.80
40622;DHT22;26324;52.040;11.528;2023-12-20T13:07:25;7.60;81.10
40622;DHT22;26324;52.040;11.528;2023-12-20T13:09:52;7.50;81.70
40622;DHT22;26324;52.040;11.528;2023-12-20T13:12:20;7.50;81.10
40622;DHT22;26324;52.040;11.528;2023-12-20T13:14:48;7.40;81.40
40622;DHT22;26324;52.040;11.528;2023-12-20T13:17:15;7.30;82.30
40622;DHT22;26324;52.040;11.528;2023-12-20T13:19:43;7.30;82.70
40622;DHT22;26324;52.040;11.528;2023-12-20T13:22:11;7.30;83.00
40622;DHT22;26324;52.040;11.528;2023-12-20T13:24:38;7.20;83.00
40622;DHT22;26324;52.040;11.528;2023-12-20T13:27:06;7.20;83.30
40622;DHT22;26324;52.040;11.528;2023-12-20T13:29:33;7.20;83.10
40622;DHT22;26324;52.040;11.528;2023-12-20T13:32:03;7.30;82.90
40622;DHT22;26324;52.040;11.528;2023-12-20T13:34:31;7.30;83.00
40622;DHT22;26324;52.040;11.528;2023-12-20T13:36:59;7.30;83.00
40622;DHT22;26324;52.040;11.528;2023-12-20T13:39:26;7.30;83.20
40622;DHT22;26324;52.040;11.528;2023-12-20T13:41:54;7.30;83.10
40622;DHT22;26324;52.040;11.528;2023-12-20T13:44:23;7.30;82.90
40622;DHT22;26324;52.040;11.528;2023-12-20T13:46:51;7.30;82.40
40622;DHT22;26324;52.040;11.528;2023-12-20T13:49:19;7.40;82.50
40622;DHT22;26324;52.040;11.528;2023-12-20T13:51:46;7.30;81.20
40622;DHT22;26324;52.040;11.528;2023-12-20T13:54:14;7.30;80.70
40622;DHT22;26324;52.040;11.528;2023-12-20T13:56:43;7.30;79.80
40622;DHT22;26324;52.040;11.528;2023-12-20T13:59:31;7.30;79.90
40622;DHT22;26324;52.040;11.528;2023-12-20T14:01:59;7.30;78.80
40622;DHT22;26324;52.040;11.528;2023-12-20T14:04:28;7.20;78.50
40622;DHT22;26324;52.040;11.528;2023-12-20T14:07:10;7.30;77.40
40622;DHT22;26324;52.040;11.528;2023-12-20T14:09:40;7.30;76.80
40622;DHT22;26324;52.040;11.528;2023-12-20T14:12:13;7.20;76.50
40622;DHT22;26324;52.040;11.528;2023-12-20T14:14:41;7.20;77.20
40622;DHT22;26324;52.040;11.528;2023-12-20T14:17:08;7.00;77.80
40622;DHT22;26324;52.040;11.528;2023-12-20T14:19:36;6.90;78.70
40622;DHT22;26324;52.040;11.528;2023-12-20T14:22:03;6.90;78.30
40622;DHT22;26324;52.040;11.528;2023-12-20T14:24:31;7.00;78.40
40622;DHT22;26324;52.040;11.528;2023-12-20T14:26:59;7.00;79.10
40622;DHT22;26324;52.040;11.528;2023-12-20T14:29:26;7.00;78.80
40622;DHT22;26324;52.040;11.528;2023-12-20T14:31:54;6.90;78.70
40622;DHT22;26324;52.040;11.528;2023-12-20T14:34:21;6.90;78.00
40622;DHT22;26324;52.040;11.528;2023-12-20T14:36:51;6.80;77.80
40622;DHT22;26324;52.040;11.528;2023-12-20T14:39:19;6.90;77.20
40622;DHT22;26324;52.040;11.528;2023-12-20T14:41:47;6.90;77.30
40622;DHT22;26324;52.040;11.528;2023-12-20T14:44:14;6.90;77.10
40622;DHT22;26324;52.040;11.528;2023-12-20T14:46:41;6.90;76.80
40622;DHT22;26324;52.040;11.528;2023-12-20T14:49:09;7.00;76.40
40622;DHT22;26324;52.040;11.528;2023-12-20T14:51:36;7.00;76.30
40622;DHT22;26324;52.040;11.528;2023-12-20T14:54:05;7.00;76.30
40622;DHT22;26324;52.040;11.528;2023-12-20T14:56:37;7.00;76.30
40622;DHT22;26324;52.040;11.528;2023-12-20T14:59:04;6.90;76.30
40622;DHT22;26324;52.040;11.528;2023-12-20T15:01:32;6.90;75.90
40622;DHT22;26324;52.040;11.528;2023-12-20T15:03:59;6.80;76.30
40622;DHT22;26324;52.040;11.528;2023-12-20T15:06:27;6.80;75.40
40622;DHT22;26324;52.040;11.528;2023-12-20T15:08:55;6.80;75.30
40622;DHT22;26324;52.040;11.528;2023-12-20T15:11:25;6.80;75.90
40622;DHT22;26324;52.040;11.528;2023-12-20T15:13:53;6.70;76.00
40622;DHT22;26324;52.040;11.528;2023-12-20T15:16:23;6.80;76.50
40622;DHT22;26324;52.040;11.528;2023-12-20T15:18:52;6.70;76.80
40622;DHT22;26324;52.040;11.528;2023-12-20T15:21:20;6.60;77.20
40622;DHT22;26324;52.040;11.528;2023-12-20T15:23:57;6.70;77.40
40622;DHT22;26324;52.040;11.528;2023-12-20T15:26:33;6.60;77.50
40622;DHT22;26324;52.040;11.528;2023-12-20T15:29:00;6.70;77.80
40622;DHT22;26324;52.040;11.528;2023-12-20T15:31:28;6.60;78.10
40622;DHT22;26324;52.040;11.528;2023-12-20T15:33:55;6.70;78.00
40622;DHT22;26324;52.040;11.528;2023-12-20T15:36:23;6.70;78.40
40622;DHT22;26324;52.040;11.528;2023-12-20T15:38:51;6.60;78.70
40622;DHT22;26324;52.040;11.528;2023-12-20T15:41:19;6.60;78.90
40622;DHT22;26324;52.040;11.528;2023-12-20T15:43:46;6.70;79.20
40622;DHT22;26324;52.040;11.528;2023-12-20T15:46:14;6.70;79.30